sensor_id;sensor_type;location;lat;lon;timestamp;P1;durP1;ratioP1;P2;durP2;ratioP2
54247;SDS011;40161;39.768;2.722;2022-12-13T00:01:43;3.65;;;0.82;;
54247;SDS011;40161;39.768;2.722;2022-12-13T00:04:09;4.10;;;0.70;;
54247;SDS011;40161;39.768;2.722;2022-12-13T00:06:35;1.98;;;0.60;;
54247;SDS011;40161;39.768;2.722;2022-12-13T00:09:01;2.58;;;0.45;;
54247;SDS011;40161;39.768;2.722;2022-12-13T00:11:28;1.17;;;0.50;;
54247;SDS011;40161;39.768;2.722;2022-12-13T00:13:54;1.48;;;0.40;;
54247;SDS011;40161;39.768;2.722;2022-12-13T00:16:21;1.58;;;0.40;;
54247;SDS011;40161;39.768;2.722;2022-12-13T00:18:49;2.53;;;0.68;;
54247;SDS011;40161;39.768;2.722;2022-12-13T00:21:16;2.85;;;0.88;;
54247;SDS011;40161;39.768;2.722;2022-12-13T00:23:43;2.20;;;0.57;;
54247;SDS011;40161;39.768;2.722;2022-12-13T00:26:11;1.08;;;0.45;;
54247;SDS011;40161;39.768;2.722;2022-12-13T00:28:38;2.05;;;0.70;;
54247;SDS011;40161;39.768;2.722;2022-12-13T00:31:04;3.47;;;0.57;;
54247;SDS011;40161;39.768;2.722;2022-12-13T00:33:30;2.13;;;0.77;;
54247;SDS011;40161;39.768;2.722;2022-12-13T00:35:56;2.22;;;0.75;;
54247;SDS011;40161;39.768;2.722;2022-12-13T00:38:22;2.72;;;0.57;;
54247;SDS011;40161;39.768;2.722;2022-12-13T00:40:48;3.03;;;0.80;;
54247;SDS011;40161;39.768;2.722;2022-12-13T00:43:15;1.88;;;0.80;;
54247;SDS011;40161;39.768;2.722;2022-12-13T00:45:41;1.30;;;0.40;;
54247;SDS011;40161;39.768;2.722;2022-12-13T00:48:06;2.63;;;0.60;;
54247;SDS011;40161;39.768;2.722;2022-12-13T00:50:32;2.72;;;0.75;;
54247;SDS011;40161;39.768;2.722;2022-12-13T00:52:58;3.05;;;0.50;;
54247;SDS011;40161;39.768;2.722;2022-12-13T00:55:25;2.25;;;0.60;;
54247;SDS011;40161;39.768;2.722;2022-12-13T00:57:51;2.10;;;0.50;;
54247;SDS011;40161;39.768;2.722;2022-12-13T01:00:17;1.85;;;0.60;;
54247;SDS011;40161;39.768;2.722;2022-12-13T01:02:43;1.90;;;0.73;;
54247;SDS011;40161;39.768;2.722;2022-12-13T01:05:09;1.35;;;0.47;;
54247;SDS011;40161;39.768;2.722;2022-12-13T01:07:36;2.83;;;0.80;;
54247;SDS011;40161;39.768;2.722;2022-12-13T01:10:03;3.35;;;0.60;;
54247;SDS011;40161;39.768;2.722;2022-12-13T01:12:31;2.78;;;0.80;;
54247;SDS011;40161;39.768;2.722;2022-12-13T01:14:57;3.35;;;1.25;;
54247;SDS011;40161;39.768;2.722;2022-12-13T01:17:23;2.53;;;0.60;;
54247;SDS011;40161;39.768;2.722;2022-12-13T01:19:48;3.38;;;0.60;;
54247;SDS011;40161;39.768;2.722;2022-12-13T01:22:14;2.55;;;0.52;;
54247;SDS011;40161;39.768;2.722;2022-12-13T01:24:39;1.70;;;0.50;;
54247;SDS011;40161;39.768;2.722;2022-12-13T01:27:05;1.67;;;0.50;;
54247;SDS011;40161;39.768;2.722;2022-12-13T01:29:30;0.95;;;0.38;;
54247;SDS011;40161;39.768;2.722;2022-12-13T01:31:56;1.50;;;0.50;;
54247;SDS011;40161;39.768;2.722;2022-12-13T01:34:22;3.33;;;1.25;;
54247;SDS011;40161;39.768;2.722;2022-12-13T01:36:48;4.40;;;0.50;;
54247;SDS011;40161;39.768;2.722;2022-12-13T01:39:15;1.35;;;0.52;;
54247;SDS011;40161;39.768;2.722;2022-12-13T01:41:44;1.52;;;0.40;;
54247;SDS011;40161;39.768;2.722;2022-12-13T01:47:13;2.05;;;0.70;;
54247;SDS011;40161;39.768;2.722;2022-12-13T01:49:44;0.88;;;0.32;;
54247;SDS011;40161;39.768;2.722;2022-12-13T01:52:10;1.80;;;0.47;;
54247;SDS011;40161;39.768;2.722;2022-12-13T01:54:39;1.58;;;0.40;;
54247;SDS011;40161;39.768;2.722;2022-12-13T01:57:08;2.83;;;0.80;;
54247;SDS011;40161;39.768;2.722;2022-12-13T01:59:37;1.95;;;0.50;;
54247;SDS011;40161;39.768;2.722;2022-12-13T02:02:06;1.35;;;0.30;;
54247;SDS011;40161;39.768;2.722;2022-12-13T02:04:39;1.65;;;0.40;;
54247;SDS011;40161;39.768;2.722;2022-12-13T02:07:15;2.40;;;0.38;;
54247;SDS011;40161;39.768;2.722;2022-12-13T02:09:43;1.08;;;0.45;;
54247;SDS011;40161;39.768;2.722;2022-12-13T02:12:10;2.40;;;0.60;;
54247;SDS011;40161;39.768;2.722;2022-12-13T02:14:37;1.30;;;0.60;;
54247;SDS011;40161;39.768;2.722;2022-12-13T02:23:13;2.45;;;0.50;;
54247;SDS011;40161;39.768;2.722;2022-12-13T02:30:52;2.92;;;0.45;;
54247;SDS011;40161;39.768;2.722;2022-12-13T02:33:22;2.78;;;0.57;;
54247;SDS011;40161;39.768;2.722;2022-12-13T02:44:07;3.57;;;0.60;;
54247;SDS011;40161;39.768;2.722;2022-12-13T02:46:45;2.88;;;0.70;;
54247;SDS011;40161;39.768;2.722;2022-12-13T02:49:17;4.35;;;0.50;;
54247;SDS011;40161;39.768;2.722;2022-12-13T02:51:45;1.80;;;0.55;;
54247;SDS011;40161;39.768;2.722;2022-12-13T02:54:11;1.40;;;0.50;;
54247;SDS011;40161;39.768;2.722;2022-12-13T02:56:37;1.17;;;0.40;;
54247;SDS011;40161;39.768;2.722;2022-12-13T02:59:05;2.58;;;0.50;;
54247;SDS011;40161;39.768;2.722;2022-12-13T03:07:11;1.40;;;0.50;;
54247;SDS011;40161;39.768;2.722;2022-12-13T03:09:58;2.13;;;0.50;;
54247;SDS011;40161;39.768;2.722;2022-12-13T03:15:20;1.30;;;0.50;;
54247;SDS011;40161;39.768;2.722;2022-12-13T03:17:48;2.70;;;0.47;;
54247;SDS011;40161;39.768;2.722;2022-12-13T03:20:18;1.85;;;0.40;;
54247;SDS011;40161;39.768;2.722;2022-12-13T03:22:48;1.85;;;0.68;;
54247;SDS011;40161;39.768;2.722;2022-12-13T03:25:14;2.55;;;0.50;;
54247;SDS011;40161;39.768;2.722;2022-12-13T03:27:39;2.30;;;0.55;;
54247;SDS011;40161;39.768;2.722;2022-12-13T03:30:05;2.80;;;0.60;;
54247;SDS011;40161;39.768;2.722;2022-12-13T03:32:31;1.40;;;0.50;;
54247;SDS011;40161;39.768;2.722;2022-12-13T03:34:57;1.70;;;0.50;;
54247;SDS011;40161;39.768;2.722;2022-12-13T03:37:22;2.45;;;0.90;;
54247;SDS011;40161;39.768;2.722;2022-12-13T03:39:48;1.70;;;0.40;;
54247;SDS011;40161;39.768;2.722;2022-12-13T03:42:14;1.50;;;0.40;;
54247;SDS011;40161;39.768;2.722;2022-12-13T03:44:40;1.77;;;0.40;;
54247;SDS011;40161;39.768;2.722;2022-12-13T03:47:05;0.40;;;0.30;;
54247;SDS011;40161;39.768;2.722;2022-12-13T03:49:31;1.70;;;0.40;;
54247;SDS011;40161;39.768;2.722;2022-12-13T03:51:56;2.00;;;0.40;;
54247;SDS011;40161;39.768;2.722;2022-12-13T03:54:22;3.47;;;0.50;;
54247;SDS011;40161;39.768;2.722;2022-12-13T03:56:47;0.90;;;0.38;;
54247;SDS011;40161;39.768;2.722;2022-12-13T03:59:13;1.75;;;0.30;;
54247;SDS011;40161;39.768;2.722;2022-12-13T04:01:38;3.22;;;0.65;;
54247;SDS011;40161;39.768;2.722;2022-12-13T04:04:04;3.30;;;0.70;;
54247;SDS011;40161;39.768;2.722;2022-12-13T04:06:29;4.13;;;0.60;;
54247;SDS011;40161;39.768;2.722;2022-12-13T04:08:55;2.17;;;0.52;;
54247;SDS011;40161;39.768;2.722;2022-12-13T04:11:20;3.42;;;0.50;;
54247;SDS011;40161;39.768;2.722;2022-12-13T04:14:04;3.40;;;0.63;;
54247;SDS011;40161;39.768;2.722;2022-12-13T04:16:30;3.40;;;0.60;;
54247;SDS011;40161;39.768;2.722;2022-12-13T04:18:55;5.50;;;0.60;;
54247;SDS011;40161;39.768;2.722;2022-12-13T04:21:21;1.30;;;0.40;;
54247;SDS011;40161;39.768;2.722;2022-12-13T04:23:46;1.80;;;0.55;;
54247;SDS011;40161;39.768;2.722;2022-12-13T04:26:12;2.53;;;0.60;;
54247;SDS011;40161;39.768;2.722;2022-12-13T04:28:38;2.53;;;0.50;;
54247;SDS011;40161;39.768;2.722;2022-12-13T04:31:03;3.05;;;0.60;;
54247;SDS011;40161;39.768;2.722;2022-12-13T04:33:29;2.60;;;0.60;;
54247;SDS011;40161;39.768;2.722;2022-12-13T04:35:56;3.55;;;0.73;;
54247;SDS011;40161;39.768;2.722;2022-12-13T04:38:22;2.90;;;0.50;;
54247;SDS011;40161;39.768;2.722;2022-12-13T04:40:47;2.22;;;0.73;;
54247;SDS011;40161;39.768;2.722;2022-12-13T04:43:13;3.20;;;0.50;;
54247;SDS011;40161;39.768;2.722;2022-12-13T04:45:39;0.85;;;0.40;;
54247;SDS011;40161;39.768;2.722;2022-12-13T04:48:04;1.95;;;0.60;;
54247;SDS011;40161;39.768;2.722;2022-12-13T04:50:30;2.22;;;0.63;;
54247;SDS011;40161;39.768;2.722;2022-12-13T04:52:56;1.30;;;0.40;;
54247;SDS011;40161;39.768;2.722;2022-12-13T04:55:22;1.08;;;0.35;;
54247;SDS011;40161;39.768;2.722;2022-12-13T04:57:47;1.95;;;0.40;;
54247;SDS011;40161;39.768;2.722;2022-12-13T05:00:13;2.58;;;0.70;;
54247;SDS011;40161;39.768;2.722;2022-12-13T05:02:39;1.58;;;0.50;;
54247;SDS011;40161;39.768;2.722;2022-12-13T05:05:06;2.40;;;0.50;;
54247;SDS011;40161;39.768;2.722;2022-12-13T05:07:33;2.17;;;0.40;;
54247;SDS011;40161;39.768;2.722;2022-12-13T05:09:58;1.80;;;0.57;;
54247;SDS011;40161;39.768;2.722;2022-12-13T05:12:24;2.55;;;0.60;;
54247;SDS011;40161;39.768;2.722;2022-12-13T05:14:50;1.02;;;0.32;;
54247;SDS011;40161;39.768;2.722;2022-12-13T05:17:16;2.67;;;0.60;;
54247;SDS011;40161;39.768;2.722;2022-12-13T05:19:42;2.60;;;0.63;;
54247;SDS011;40161;39.768;2.722;2022-12-13T05:22:08;3.25;;;0.50;;
54247;SDS011;40161;39.768;2.722;2022-12-13T05:24:40;2.15;;;0.50;;
54247;SDS011;40161;39.768;2.722;2022-12-13T05:27:07;5.45;;;0.80;;
54247;SDS011;40161;39.768;2.722;2022-12-13T05:29:32;2.50;;;0.40;;
54247;SDS011;40161;39.768;2.722;2022-12-13T05:31:58;2.17;;;0.40;;
54247;SDS011;40161;39.768;2.722;2022-12-13T05:34:24;1.73;;;0.40;;
54247;SDS011;40161;39.768;2.722;2022-12-13T05:36:50;4.10;;;0.60;;
54247;SDS011;40161;39.768;2.722;2022-12-13T05:39:15;2.83;;;0.50;;
54247;SDS011;40161;39.768;2.722;2022-12-13T05:41:41;3.15;;;0.60;;
54247;SDS011;40161;39.768;2.722;2022-12-13T05:44:06;2.88;;;0.57;;
54247;SDS011;40161;39.768;2.722;2022-12-13T05:46:34;2.40;;;0.60;;
54247;SDS011;40161;39.768;2.722;2022-12-13T05:49:00;2.33;;;0.65;;
54247;SDS011;40161;39.768;2.722;2022-12-13T05:51:26;4.60;;;0.60;;
54247;SDS011;40161;39.768;2.722;2022-12-13T05:53:52;2.70;;;0.50;;
54247;SDS011;40161;39.768;2.722;2022-12-13T05:56:17;2.50;;;0.40;;
54247;SDS011;40161;39.768;2.722;2022-12-13T05:58:43;2.50;;;0.50;;
54247;SDS011;40161;39.768;2.722;2022-12-13T06:01:09;2.03;;;0.65;;
54247;SDS011;40161;39.768;2.722;2022-12-13T06:03:37;3.05;;;0.60;;
54247;SDS011;40161;39.768;2.722;2022-12-13T06:06:03;2.15;;;0.40;;
54247;SDS011;40161;39.768;2.722;2022-12-13T06:08:30;2.65;;;0.57;;
54247;SDS011;40161;39.768;2.722;2022-12-13T06:10:57;1.55;;;0.40;;
54247;SDS011;40161;39.768;2.722;2022-12-13T06:13:24;4.20;;;0.60;;
54247;SDS011;40161;39.768;2.722;2022-12-13T06:15:49;2.78;;;0.65;;
54247;SDS011;40161;39.768;2.722;2022-12-13T06:18:15;2.97;;;1.38;;
54247;SDS011;40161;39.768;2.722;2022-12-13T06:20:41;2.35;;;0.50;;
54247;SDS011;40161;39.768;2.722;2022-12-13T06:23:06;3.85;;;0.77;;
54247;SDS011;40161;39.768;2.722;2022-12-13T06:25:32;2.78;;;0.60;;
54247;SDS011;40161;39.768;2.722;2022-12-13T06:28:00;2.30;;;0.70;;
54247;SDS011;40161;39.768;2.722;2022-12-13T06:30:26;2.63;;;0.90;;
54247;SDS011;40161;39.768;2.722;2022-12-13T06:32:52;3.47;;;0.70;;
54247;SDS011;40161;39.768;2.722;2022-12-13T06:35:18;3.58;;;1.00;;
54247;SDS011;40161;39.768;2.722;2022-12-13T06:37:43;3.40;;;0.60;;
54247;SDS011;40161;39.768;2.722;2022-12-13T06:40:09;2.75;;;0.57;;
54247;SDS011;40161;39.768;2.722;2022-12-13T06:42:35;3.38;;;0.95;;
54247;SDS011;40161;39.768;2.722;2022-12-13T06:45:00;2.42;;;0.70;;
54247;SDS011;40161;39.768;2.722;2022-12-13T06:47:25;2.25;;;0.60;;
54247;SDS011;40161;39.768;2.722;2022-12-13T06:49:51;3.85;;;0.73;;
54247;SDS011;40161;39.768;2.722;2022-12-13T06:52:17;3.50;;;0.70;;
54247;SDS011;40161;39.768;2.722;2022-12-13T06:54:43;3.53;;;0.63;;
54247;SDS011;40161;39.768;2.722;2022-12-13T06:57:09;2.80;;;0.70;;
54247;SDS011;40161;39.768;2.722;2022-12-13T06:59:36;3.92;;;0.60;;
54247;SDS011;40161;39.768;2.722;2022-12-13T07:02:02;5.22;;;1.13;;
54247;SDS011;40161;39.768;2.722;2022-12-13T07:04:28;2.50;;;0.70;;
54247;SDS011;40161;39.768;2.722;2022-12-13T07:06:54;3.47;;;0.70;;
54247;SDS011;40161;39.768;2.722;2022-12-13T07:09:20;3.20;;;0.63;;
54247;SDS011;40161;39.768;2.722;2022-12-13T07:11:45;4.43;;;0.80;;
54247;SDS011;40161;39.768;2.722;2022-12-13T07:14:11;3.60;;;0.88;;
54247;SDS011;40161;39.768;2.722;2022-12-13T07:16:36;3.90;;;0.80;;
54247;SDS011;40161;39.768;2.722;2022-12-13T07:19:02;2.03;;;0.65;;
54247;SDS011;40161;39.768;2.722;2022-12-13T07:21:28;2.58;;;0.70;;
54247;SDS011;40161;39.768;2.722;2022-12-13T07:23:55;3.78;;;0.55;;
54247;SDS011;40161;39.768;2.722;2022-12-13T07:26:20;1.27;;;0.52;;
54247;SDS011;40161;39.768;2.722;2022-12-13T07:28:47;5.57;;;1.00;;
54247;SDS011;40161;39.768;2.722;2022-12-13T07:31:13;1.73;;;0.40;;
54247;SDS011;40161;39.768;2.722;2022-12-13T07:33:39;3.60;;;0.40;;
54247;SDS011;40161;39.768;2.722;2022-12-13T07:36:10;4.80;;;0.60;;
54247;SDS011;40161;39.768;2.722;2022-12-13T07:38:38;3.05;;;0.50;;
54247;SDS011;40161;39.768;2.722;2022-12-13T07:41:03;4.22;;;0.88;;
54247;SDS011;40161;39.768;2.722;2022-12-13T07:43:30;5.30;;;0.90;;
54247;SDS011;40161;39.768;2.722;2022-12-13T07:45:57;5.63;;;0.80;;
54247;SDS011;40161;39.768;2.722;2022-12-13T07:48:24;5.68;;;0.73;;
54247;SDS011;40161;39.768;2.722;2022-12-13T07:50:50;1.98;;;0.60;;
54247;SDS011;40161;39.768;2.722;2022-12-13T07:53:16;4.70;;;0.70;;
54247;SDS011;40161;39.768;2.722;2022-12-13T07:55:41;3.47;;;0.90;;
54247;SDS011;40161;39.768;2.722;2022-12-13T07:58:11;2.38;;;0.70;;
54247;SDS011;40161;39.768;2.722;2022-12-13T08:00:38;2.70;;;0.70;;
54247;SDS011;40161;39.768;2.722;2022-12-13T08:03:08;5.30;;;0.80;;
54247;SDS011;40161;39.768;2.722;2022-12-13T08:05:35;2.92;;;0.70;;
54247;SDS011;40161;39.768;2.722;2022-12-13T08:08:02;3.35;;;0.80;;
54247;SDS011;40161;39.768;2.722;2022-12-13T08:10:29;2.88;;;0.75;;
54247;SDS011;40161;39.768;2.722;2022-12-13T08:12:55;4.50;;;0.98;;
54247;SDS011;40161;39.768;2.722;2022-12-13T08:15:20;3.90;;;1.27;;
54247;SDS011;40161;39.768;2.722;2022-12-13T08:17:46;2.50;;;0.70;;
54247;SDS011;40161;39.768;2.722;2022-12-13T08:20:12;5.72;;;1.02;;
54247;SDS011;40161;39.768;2.722;2022-12-13T08:22:38;2.83;;;0.70;;
54247;SDS011;40161;39.768;2.722;2022-12-13T08:25:04;2.78;;;0.70;;
54247;SDS011;40161;39.768;2.722;2022-12-13T08:27:30;3.25;;;0.80;;
54247;SDS011;40161;39.768;2.722;2022-12-13T08:29:56;3.88;;;0.73;;
54247;SDS011;40161;39.768;2.722;2022-12-13T08:32:22;3.25;;;0.80;;
54247;SDS011;40161;39.768;2.722;2022-12-13T08:34:48;5.45;;;1.13;;
54247;SDS011;40161;39.768;2.722;2022-12-13T08:37:13;11.20;;;1.05;;
54247;SDS011;40161;39.768;2.722;2022-12-13T08:39:39;2.63;;;0.68;;
54247;SDS011;40161;39.768;2.722;2022-12-13T08:42:06;3.47;;;0.60;;
54247;SDS011;40161;39.768;2.722;2022-12-13T08:44:41;3.67;;;0.82;;
54247;SDS011;40161;39.768;2.722;2022-12-13T08:47:07;4.38;;;0.80;;
54247;SDS011;40161;39.768;2.722;2022-12-13T08:49:32;4.13;;;1.33;;
54247;SDS011;40161;39.768;2.722;2022-12-13T08:51:58;6.18;;;0.95;;
54247;SDS011;40161;39.768;2.722;2022-12-13T08:54:24;3.30;;;0.70;;
54247;SDS011;40161;39.768;2.722;2022-12-13T08:56:50;4.45;;;0.90;;
54247;SDS011;40161;39.768;2.722;2022-12-13T08:59:16;4.63;;;0.82;;
54247;SDS011;40161;39.768;2.722;2022-12-13T09:01:42;3.58;;;1.00;;
54247;SDS011;40161;39.768;2.722;2022-12-13T09:04:08;2.03;;;0.73;;
54247;SDS011;40161;39.768;2.722;2022-12-13T09:06:34;1.73;;;0.47;;
54247;SDS011;40161;39.768;2.722;2022-12-13T09:08:59;2.85;;;0.70;;
54247;SDS011;40161;39.768;2.722;2022-12-13T09:11:26;1.85;;;0.70;;
54247;SDS011;40161;39.768;2.722;2022-12-13T09:13:51;2.38;;;0.73;;
54247;SDS011;40161;39.768;2.722;2022-12-13T09:16:18;3.80;;;0.70;;
54247;SDS011;40161;39.768;2.722;2022-12-13T09:18:47;8.63;;;0.90;;
54247;SDS011;40161;39.768;2.722;2022-12-13T09:21:14;3.42;;;0.80;;
54247;SDS011;40161;39.768;2.722;2022-12-13T09:23:40;2.58;;;0.70;;
54247;SDS011;40161;39.768;2.722;2022-12-13T09:26:07;2.90;;;0.52;;
54247;SDS011;40161;39.768;2.722;2022-12-13T09:28:35;3.45;;;1.05;;
54247;SDS011;40161;39.768;2.722;2022-12-13T09:31:21;2.20;;;0.70;;
54247;SDS011;40161;39.768;2.722;2022-12-13T09:33:47;2.58;;;0.60;;
54247;SDS011;40161;39.768;2.722;2022-12-13T09:36:13;3.83;;;0.82;;
54247;SDS011;40161;39.768;2.722;2022-12-13T09:38:41;1.42;;;0.77;;
54247;SDS011;40161;39.768;2.722;2022-12-13T09:43:46;3.50;;;0.60;;
54247;SDS011;40161;39.768;2.722;2022-12-13T09:46:22;4.22;;;0.70;;
54247;SDS011;40161;39.768;2.722;2022-12-13T09:49:02;2.78;;;0.60;;
54247;SDS011;40161;39.768;2.722;2022-12-13T09:53:59;1.92;;;0.60;;
54247;SDS011;40161;39.768;2.722;2022-12-13T09:56:25;1.95;;;0.75;;
54247;SDS011;40161;39.768;2.722;2022-12-13T09:58:52;2.00;;;0.80;;
54247;SDS011;40161;39.768;2.722;2022-12-13T10:01:22;1.40;;;0.63;;
54247;SDS011;40161;39.768;2.722;2022-12-13T10:03:49;1.77;;;0.80;;
54247;SDS011;40161;39.768;2.722;2022-12-13T10:06:17;1.88;;;1.00;;
54247;SDS011;40161;39.768;2.722;2022-12-13T10:08:55;2.88;;;0.68;;
54247;SDS011;40161;39.768;2.722;2022-12-13T10:11:23;2.58;;;0.80;;
54247;SDS011;40161;39.768;2.722;2022-12-13T10:16:44;2.95;;;0.80;;
54247;SDS011;40161;39.768;2.722;2022-12-13T10:21:44;1.33;;;0.60;;
54247;SDS011;40161;39.768;2.722;2022-12-13T10:24:15;3.42;;;0.80;;
54247;SDS011;40161;39.768;2.722;2022-12-13T10:26:43;2.40;;;0.70;;
54247;SDS011;40161;39.768;2.722;2022-12-13T10:29:09;3.05;;;0.95;;
54247;SDS011;40161;39.768;2.722;2022-12-13T10:31:53;1.33;;;0.75;;
54247;SDS011;40161;39.768;2.722;2022-12-13T10:34:20;3.35;;;1.60;;
54247;SDS011;40161;39.768;2.722;2022-12-13T10:36:48;2.75;;;1.02;;
54247;SDS011;40161;39.768;2.722;2022-12-13T10:39:15;2.28;;;1.02;;
54247;SDS011;40161;39.768;2.722;2022-12-13T10:41:44;2.53;;;0.60;;
54247;SDS011;40161;39.768;2.722;2022-12-13T10:47:19;1.42;;;0.60;;
54247;SDS011;40161;39.768;2.722;2022-12-13T10:52:24;1.40;;;0.50;;
54247;SDS011;40161;39.768;2.722;2022-12-13T10:54:54;0.80;;;0.47;;
54247;SDS011;40161;39.768;2.722;2022-12-13T10:57:22;1.38;;;0.40;;
54247;SDS011;40161;39.768;2.722;2022-12-13T10:59:49;1.08;;;0.40;;
54247;SDS011;40161;39.768;2.722;2022-12-13T11:02:29;0.95;;;0.45;;
54247;SDS011;40161;39.768;2.722;2022-12-13T11:04:57;1.35;;;0.80;;
54247;SDS011;40161;39.768;2.722;2022-12-13T11:09:54;1.40;;;0.50;;
54247;SDS011;40161;39.768;2.722;2022-12-13T11:12:25;2.72;;;0.70;;
54247;SDS011;40161;39.768;2.722;2022-12-13T11:17:26;1.27;;;0.40;;
54247;SDS011;40161;39.768;2.722;2022-12-13T11:20:01;1.70;;;0.30;;
54247;SDS011;40161;39.768;2.722;2022-12-13T11:22:31;1.63;;;0.60;;
54247;SDS011;40161;39.768;2.722;2022-12-13T11:27:59;0.60;;;0.30;;
54247;SDS011;40161;39.768;2.722;2022-12-13T11:30:40;1.05;;;0.38;;
54247;SDS011;40161;39.768;2.722;2022-12-13T11:33:26;2.13;;;0.60;;
54247;SDS011;40161;39.768;2.722;2022-12-13T11:36:01;1.15;;;0.45;;
54247;SDS011;40161;39.768;2.722;2022-12-13T11:41:28;0.30;;;0.20;;
54247;SDS011;40161;39.768;2.722;2022-12-13T11:47:32;2.13;;;0.30;;
54247;SDS011;40161;39.768;2.722;2022-12-13T11:50:02;0.40;;;0.23;;
54247;SDS011;40161;39.768;2.722;2022-12-13T11:52:38;1.23;;;0.30;;
54247;SDS011;40161;39.768;2.722;2022-12-13T11:55:13;1.80;;;0.30;;
54247;SDS011;40161;39.768;2.722;2022-12-13T12:02:54;0.90;;;0.20;;
54247;SDS011;40161;39.768;2.722;2022-12-13T12:08:37;0.90;;;0.40;;
54247;SDS011;40161;39.768;2.722;2022-12-13T12:11:15;2.65;;;0.30;;
54247;SDS011;40161;39.768;2.722;2022-12-13T12:16:39;1.02;;;0.30;;
54247;SDS011;40161;39.768;2.722;2022-12-13T12:19:11;0.57;;;0.30;;
54247;SDS011;40161;39.768;2.722;2022-12-13T12:22:24;0.68;;;0.30;;
54247;SDS011;40161;39.768;2.722;2022-12-13T12:30:04;2.28;;;0.40;;
54247;SDS011;40161;39.768;2.722;2022-12-13T12:47:00;0.45;;;0.30;;
54247;SDS011;40161;39.768;2.722;2022-12-13T12:49:32;1.08;;;0.30;;
54247;SDS011;40161;39.768;2.722;2022-12-13T12:55:08;0.63;;;0.40;;
54247;SDS011;40161;39.768;2.722;2022-12-13T12:57:58;0.35;;;0.30;;
54247;SDS011;40161;39.768;2.722;2022-12-13T13:00:27;0.30;;;0.20;;
54247;SDS011;40161;39.768;2.722;2022-12-13T13:06:26;0.65;;;0.30;;
54247;SDS011;40161;39.768;2.722;2022-12-13T13:11:23;7.43;;;4.57;;
54247;SDS011;40161;39.768;2.722;2022-12-13T13:18:53;1.52;;;0.60;;
54247;SDS011;40161;39.768;2.722;2022-12-13T13:26:27;1.20;;;0.30;;
54247;SDS011;40161;39.768;2.722;2022-12-13T13:28:53;1.25;;;0.20;;
54247;SDS011;40161;39.768;2.722;2022-12-13T13:31:19;0.20;;;0.20;;
54247;SDS011;40161;39.768;2.722;2022-12-13T13:39:18;0.82;;;0.30;;
54247;SDS011;40161;39.768;2.722;2022-12-13T13:42:21;0.60;;;0.30;;
54247;SDS011;40161;39.768;2.722;2022-12-13T13:44:54;1.20;;;0.40;;
54247;SDS011;40161;39.768;2.722;2022-12-13T13:50:12;2.03;;;1.15;;
54247;SDS011;40161;39.768;2.722;2022-12-13T14:30:04;0.75;;;0.40;;
54247;SDS011;40161;39.768;2.722;2022-12-13T14:32:30;1.42;;;0.50;;
54247;SDS011;40161;39.768;2.722;2022-12-13T14:35:01;0.90;;;0.38;;
54247;SDS011;40161;39.768;2.722;2022-12-13T14:37:29;2.03;;;0.32;;
54247;SDS011;40161;39.768;2.722;2022-12-13T14:40:11;2.60;;;0.73;;
54247;SDS011;40161;39.768;2.722;2022-12-13T14:42:50;2.60;;;0.60;;
54247;SDS011;40161;39.768;2.722;2022-12-13T14:45:33;3.47;;;1.25;;
54247;SDS011;40161;39.768;2.722;2022-12-13T14:48:04;2.28;;;0.90;;
54247;SDS011;40161;39.768;2.722;2022-12-13T14:50:38;5.38;;;2.05;;
54247;SDS011;40161;39.768;2.722;2022-12-13T14:53:15;4.95;;;1.95;;
54247;SDS011;40161;39.768;2.722;2022-12-13T14:56:03;3.55;;;1.50;;
54247;SDS011;40161;39.768;2.722;2022-12-13T14:58:37;3.47;;;1.42;;
54247;SDS011;40161;39.768;2.722;2022-12-13T15:01:03;2.72;;;1.08;;
54247;SDS011;40161;39.768;2.722;2022-12-13T15:03:49;4.70;;;1.55;;
54247;SDS011;40161;39.768;2.722;2022-12-13T15:06:15;4.30;;;1.85;;
54247;SDS011;40161;39.768;2.722;2022-12-13T15:08:44;4.20;;;1.65;;
54247;SDS011;40161;39.768;2.722;2022-12-13T15:11:10;5.55;;;2.50;;
54247;SDS011;40161;39.768;2.722;2022-12-13T15:16:28;4.90;;;2.03;;
54247;SDS011;40161;39.768;2.722;2022-12-13T15:19:15;5.35;;;1.92;;
54247;SDS011;40161;39.768;2.722;2022-12-13T15:21:41;3.63;;;1.23;;
54247;SDS011;40161;39.768;2.722;2022-12-13T15:24:20;5.45;;;1.10;;
54247;SDS011;40161;39.768;2.722;2022-12-13T15:26:50;6.35;;;2.90;;
54247;SDS011;40161;39.768;2.722;2022-12-13T15:29:17;7.88;;;4.50;;
54247;SDS011;40161;39.768;2.722;2022-12-13T15:31:46;5.80;;;1.80;;
54247;SDS011;40161;39.768;2.722;2022-12-13T15:34:20;4.57;;;1.98;;
54247;SDS011;40161;39.768;2.722;2022-12-13T15:36:51;3.95;;;2.45;;
54247;SDS011;40161;39.768;2.722;2022-12-13T15:39:18;4.50;;;2.50;;
54247;SDS011;40161;39.768;2.722;2022-12-13T15:41:44;81.78;;;64.47;;
54247;SDS011;40161;39.768;2.722;2022-12-13T15:46:42;79.43;;;58.72;;
54247;SDS011;40161;39.768;2.722;2022-12-13T15:49:17;17.95;;;12.95;;
54247;SDS011;40161;39.768;2.722;2022-12-13T15:51:56;5.53;;;2.97;;
54247;SDS011;40161;39.768;2.722;2022-12-13T15:54:25;4.97;;;2.22;;
54247;SDS011;40161;39.768;2.722;2022-12-13T15:57:00;4.68;;;2.10;;
54247;SDS011;40161;39.768;2.722;2022-12-13T15:59:31;3.67;;;1.73;;
54247;SDS011;40161;39.768;2.722;2022-12-13T16:01:58;5.53;;;1.80;;
54247;SDS011;40161;39.768;2.722;2022-12-13T16:04:31;4.53;;;1.77;;
54247;SDS011;40161;39.768;2.722;2022-12-13T16:09:24;4.00;;;1.17;;
54247;SDS011;40161;39.768;2.722;2022-12-13T16:11:57;4.18;;;1.70;;
54247;SDS011;40161;39.768;2.722;2022-12-13T16:17:04;5.18;;;2.40;;
54247;SDS011;40161;39.768;2.722;2022-12-13T16:19:36;5.03;;;2.17;;
54247;SDS011;40161;39.768;2.722;2022-12-13T16:22:02;6.80;;;3.90;;
54247;SDS011;40161;39.768;2.722;2022-12-13T16:24:28;6.45;;;3.55;;
54247;SDS011;40161;39.768;2.722;2022-12-13T16:26:53;4.32;;;2.10;;
54247;SDS011;40161;39.768;2.722;2022-12-13T16:29:18;4.32;;;1.95;;
54247;SDS011;40161;39.768;2.722;2022-12-13T16:31:44;4.93;;;1.73;;
54247;SDS011;40161;39.768;2.722;2022-12-13T16:34:10;4.00;;;2.13;;
54247;SDS011;40161;39.768;2.722;2022-12-13T16:36:37;4.10;;;1.65;;
54247;SDS011;40161;39.768;2.722;2022-12-13T16:39:03;4.38;;;2.05;;
54247;SDS011;40161;39.768;2.722;2022-12-13T16:41:33;7.18;;;3.53;;
54247;SDS011;40161;39.768;2.722;2022-12-13T16:44:01;5.68;;;3.08;;
54247;SDS011;40161;39.768;2.722;2022-12-13T16:46:27;9.27;;;4.90;;
54247;SDS011;40161;39.768;2.722;2022-12-13T16:48:55;8.38;;;5.18;;
54247;SDS011;40161;39.768;2.722;2022-12-13T16:51:21;9.38;;;5.30;;
54247;SDS011;40161;39.768;2.722;2022-12-13T16:53:47;10.50;;;5.25;;
54247;SDS011;40161;39.768;2.722;2022-12-13T16:56:13;7.47;;;4.68;;
54247;SDS011;40161;39.768;2.722;2022-12-13T16:58:41;8.75;;;4.28;;
54247;SDS011;40161;39.768;2.722;2022-12-13T17:01:10;9.77;;;6.10;;
54247;SDS011;40161;39.768;2.722;2022-12-13T17:03:37;10.30;;;4.60;;
54247;SDS011;40161;39.768;2.722;2022-12-13T17:06:03;9.73;;;3.97;;
54247;SDS011;40161;39.768;2.722;2022-12-13T17:08:29;13.48;;;8.32;;
54247;SDS011;40161;39.768;2.722;2022-12-13T17:10:56;38.85;;;20.30;;
54247;SDS011;40161;39.768;2.722;2022-12-13T17:13:22;39.10;;;22.05;;
54247;SDS011;40161;39.768;2.722;2022-12-13T17:15:47;16.77;;;10.32;;
54247;SDS011;40161;39.768;2.722;2022-12-13T17:18:13;11.70;;;6.50;;
54247;SDS011;40161;39.768;2.722;2022-12-13T17:20:39;7.93;;;4.53;;
54247;SDS011;40161;39.768;2.722;2022-12-13T17:23:05;8.00;;;4.45;;
54247;SDS011;40161;39.768;2.722;2022-12-13T17:25:31;8.15;;;4.70;;
54247;SDS011;40161;39.768;2.722;2022-12-13T17:28:00;9.43;;;5.63;;
54247;SDS011;40161;39.768;2.722;2022-12-13T17:30:28;7.90;;;5.45;;
54247;SDS011;40161;39.768;2.722;2022-12-13T17:32:57;11.68;;;6.63;;
54247;SDS011;40161;39.768;2.722;2022-12-13T17:35:23;8.25;;;5.38;;
54247;SDS011;40161;39.768;2.722;2022-12-13T17:37:51;7.20;;;4.60;;
54247;SDS011;40161;39.768;2.722;2022-12-13T17:40:17;15.65;;;10.75;;
54247;SDS011;40161;39.768;2.722;2022-12-13T17:42:43;11.50;;;8.60;;